createdAt,value
2023-03-05T00:01:14.618Z,3.60
2023-03-05T00:03:41.923Z,3.50
2023-03-05T00:06:09.234Z,3.40
2023-03-05T00:08:36.408Z,3.40
2023-03-05T00:11:07.360Z,3.40
2023-03-05T00:13:34.765Z,3.50
2023-03-05T00:16:10.754Z,3.50
2023-03-05T00:18:38.671Z,3.60
2023-03-05T00:21:18.151Z,3.70
2023-03-05T00:23:45.238Z,3.60
2023-03-05T00:26:12.183Z,3.60
2023-03-05T00:28:41.296Z,3.70
2023-03-05T00:31:08.416Z,3.60
2023-03-05T00:33:35.467Z,3.50
2023-03-05T00:36:06.706Z,3.50
2023-03-05T00:38:34.533Z,3.60
2023-03-05T00:41:02.112Z,3.50
2023-03-05T00:43:29.581Z,3.40
2023-03-05T00:45:56.574Z,3.40
2023-03-05T00:48:23.585Z,3.30
2023-03-05T00:50:50.567Z,3.50
2023-03-05T00:53:17.854Z,3.50
2023-03-05T00:55:44.870Z,3.40
2023-03-05T00:58:11.888Z,3.50
2023-03-05T01:00:38.847Z,3.50
2023-03-05T01:03:06.013Z,3.50
2023-03-05T01:05:33.234Z,3.30
2023-03-05T01:08:00.324Z,3.50
2023-03-05T01:10:27.474Z,3.60
2023-03-05T01:12:55.528Z,3.40
2023-03-05T01:15:23.659Z,3.40
2023-03-05T01:17:50.888Z,3.40
2023-03-05T01:20:20.095Z,3.40
2023-03-05T01:22:47.033Z,3.50
2023-03-05T01:25:15.156Z,3.60
2023-03-05T01:27:42.257Z,3.40
2023-03-05T01:30:10.366Z,3.40
2023-03-05T01:32:37.496Z,3.40
2023-03-05T01:35:05.881Z,3.40
2023-03-05T01:37:32.806Z,3.40
2023-03-05T01:39:59.846Z,3.50
2023-03-05T01:42:26.861Z,3.50
2023-03-05T01:45:20.466Z,3.50
2023-03-05T01:47:47.631Z,3.40
2023-03-05T01:50:19.491Z,3.40
2023-03-05T01:52:58.243Z,3.50
2023-03-05T01:55:28.428Z,3.30
2023-03-05T01:58:03.263Z,3.40
2023-03-05T02:00:35.428Z,3.50
2023-03-05T02:03:05.608Z,3.50
2023-03-05T02:05:35.489Z,3.60
2023-03-05T02:08:06.638Z,3.60
2023-03-05T02:10:38.791Z,3.60
2023-03-05T02:13:09.789Z,3.50
2023-03-05T02:15:38.534Z,3.50
2023-03-05T02:18:07.797Z,3.40
2023-03-05T02:21:00.232Z,3.40
2023-03-05T02:23:32.748Z,3.40
2023-03-05T02:26:00.311Z,3.20
2023-03-05T02:28:49.044Z,3.40
2023-03-05T02:31:20.176Z,3.40
2023-03-05T02:33:47.690Z,3.40
2023-03-05T02:36:16.022Z,3.50
2023-03-05T02:38:46.251Z,3.40
2023-03-05T02:41:14.386Z,3.40
2023-03-05T02:43:42.319Z,3.50
2023-03-05T02:46:12.512Z,3.60
2023-03-05T02:48:39.883Z,3.40
2023-03-05T02:51:09.476Z,3.40
2023-03-05T02:53:36.487Z,3.40
2023-03-05T02:56:04.406Z,3.40
2023-03-05T02:58:34.529Z,3.30
2023-03-05T03:01:01.626Z,3.40
2023-03-05T03:03:29.039Z,3.30
2023-03-05T03:05:55.961Z,3.50
2023-03-05T03:08:22.984Z,3.40
2023-03-05T03:10:49.887Z,3.50
2023-03-05T03:13:17.092Z,3.40
2023-03-05T03:15:44.180Z,3.30
2023-03-05T03:18:11.107Z,3.40
2023-03-05T03:20:39.235Z,3.40
2023-03-05T03:23:07.178Z,3.50
2023-03-05T03:25:34.819Z,3.40
2023-03-05T03:28:01.763Z,3.50
2023-03-05T03:30:28.725Z,3.60
2023-03-05T03:32:55.645Z,3.60
2023-03-05T03:35:22.681Z,3.50
2023-03-05T03:37:49.680Z,3.40
2023-03-05T03:40:16.986Z,3.60
2023-03-05T03:42:43.938Z,3.60
2023-03-05T03:45:11.375Z,3.50
2023-03-05T03:47:38.322Z,3.50
2023-03-05T03:50:05.761Z,3.50
2023-03-05T03:52:32.968Z,3.50
2023-03-05T03:55:02.088Z,3.60
2023-03-05T03:57:30.775Z,3.60
2023-03-05T03:59:57.724Z,3.50
2023-03-05T04:02:25.112Z,3.60
2023-03-05T04:04:52.941Z,3.50
2023-03-05T04:07:20.205Z,3.50
2023-03-05T04:09:47.270Z,3.60
2023-03-05T04:12:18.144Z,3.60
2023-03-05T04:14:47.061Z,3.50
2023-03-05T04:17:14.604Z,3.50
2023-03-05T04:19:42.259Z,3.60
2023-03-05T04:22:17.409Z,3.70
2023-03-05T04:24:45.053Z,3.70
2023-03-05T04:27:12.250Z,3.70
2023-03-05T04:29:39.236Z,3.70
2023-03-05T04:32:06.621Z,3.70
2023-03-05T04:34:33.925Z,3.70
2023-03-05T04:37:01.213Z,3.70
2023-03-05T04:39:28.649Z,3.70
2023-03-05T04:41:55.578Z,3.70
2023-03-05T04:44:25.302Z,3.60
2023-03-05T04:46:52.799Z,3.60
2023-03-05T04:49:19.779Z,3.60
2023-03-05T04:51:47.101Z,3.60
2023-03-05T04:54:14.198Z,3.50
2023-03-05T04:56:41.754Z,3.60
2023-03-05T04:59:08.682Z,3.50
2023-03-05T05:01:35.668Z,3.50
2023-03-05T05:04:02.686Z,3.60
2023-03-05T05:06:29.836Z,3.60
2023-03-05T05:08:56.823Z,3.50
2023-03-05T05:11:23.858Z,3.40
2023-03-05T05:13:50.781Z,3.50
2023-03-05T05:16:18.137Z,3.60
2023-03-05T05:18:45.330Z,3.60
2023-03-05T05:21:14.712Z,3.60
2023-03-05T05:23:41.965Z,3.60
2023-03-05T05:26:14.309Z,3.70
2023-03-05T05:28:43.704Z,3.50
2023-03-05T05:31:13.952Z,3.40
2023-03-05T05:33:41.806Z,3.50
2023-03-05T05:36:11.362Z,3.40
2023-03-05T05:38:39.061Z,3.50
2023-03-05T05:41:12.506Z,3.60
2023-03-05T05:43:40.865Z,3.50
2023-03-05T05:46:11.155Z,3.50
2023-03-05T05:48:38.797Z,3.60
2023-03-05T05:51:11.524Z,3.60
2023-03-05T05:53:39.643Z,3.60
2023-03-05T05:56:09.214Z,3.60
2023-03-05T05:58:37.798Z,3.70
2023-03-05T06:01:31.224Z,3.60
2023-03-05T06:03:59.469Z,3.50
2023-03-05T06:06:28.061Z,3.60
2023-03-05T06:08:55.564Z,3.60
2023-03-05T06:11:23.490Z,3.70
2023-03-05T06:13:51.178Z,3.60
2023-03-05T06:16:22.037Z,3.70
2023-03-05T06:18:49.034Z,3.80
2023-03-05T06:21:17.735Z,3.80
2023-03-05T06:23:46.260Z,3.70
2023-03-05T06:26:15.802Z,3.60
2023-03-05T06:28:42.962Z,3.70
2023-03-05T06:31:16.116Z,3.70
2023-03-05T06:33:43.575Z,3.70
2023-03-05T06:36:13.550Z,3.60
2023-03-05T06:38:41.099Z,3.70
2023-03-05T06:41:16.881Z,3.70
2023-03-05T06:43:45.438Z,3.70
2023-03-05T06:46:21.255Z,3.70
2023-03-05T06:48:49.368Z,3.70
2023-03-05T06:51:22.431Z,3.70
2023-03-05T06:53:49.777Z,3.80
2023-03-05T06:56:18.038Z,3.70
2023-03-05T06:58:46.555Z,3.70
2023-03-05T07:01:15.345Z,3.80
2023-03-05T07:03:43.591Z,3.90
2023-03-05T07:06:13.633Z,3.90
2023-03-05T07:08:40.595Z,3.80
2023-03-05T07:11:17.601Z,3.80
2023-03-05T07:13:49.693Z,3.70
2023-03-05T07:16:19.599Z,3.80
2023-03-05T07:18:46.646Z,3.80
2023-03-05T07:21:22.257Z,3.80
2023-03-05T07:23:50.051Z,3.70
2023-03-05T07:26:17.158Z,3.80
2023-03-05T07:28:44.403Z,3.80
2023-03-05T07:31:14.713Z,3.90
2023-03-05T07:33:42.032Z,3.80
2023-03-05T07:36:10.005Z,3.90
2023-03-05T07:38:37.636Z,3.90
2023-03-05T07:41:13.487Z,3.90
2023-03-05T07:43:41.165Z,3.90
2023-03-05T07:46:10.273Z,3.90
2023-03-05T07:48:37.524Z,3.90
2023-03-05T07:51:07.131Z,3.80
2023-03-05T07:53:34.191Z,3.80
2023-03-05T07:56:01.199Z,3.90
2023-03-05T07:58:28.296Z,4.10
2023-03-05T08:00:55.326Z,4.10
2023-03-05T08:03:22.327Z,4.00
2023-03-05T08:05:49.286Z,4.00
2023-03-05T08:08:16.628Z,4.00
2023-03-05T08:10:43.633Z,4.20
2023-03-05T08:13:10.796Z,4.30
2023-03-05T08:15:38.563Z,4.30
2023-03-05T08:18:05.602Z,4.40
2023-03-05T08:20:36.050Z,4.30
2023-03-05T08:23:04.751Z,4.20
2023-03-05T08:25:32.327Z,4.20
2023-03-05T08:28:00.471Z,4.30
2023-03-05T08:30:27.768Z,4.40
2023-03-05T08:32:55.633Z,4.30
2023-03-05T08:35:22.734Z,4.30
2023-03-05T08:37:50.218Z,4.20
2023-03-05T08:40:20.566Z,4.40
2023-03-05T08:42:47.658Z,4.30
2023-03-05T08:45:14.654Z,4.30
2023-03-05T08:47:41.630Z,4.20
2023-03-05T08:50:09.465Z,4.30
2023-03-05T08:52:36.461Z,4.50
2023-03-05T08:55:03.954Z,4.40
2023-03-05T08:57:30.871Z,4.50
2023-03-05T08:59:57.898Z,4.60
2023-03-05T09:02:24.922Z,4.60
2023-03-05T09:04:52.278Z,4.70
2023-03-05T09:07:19.302Z,4.70
2023-03-05T09:09:46.229Z,4.80
2023-03-05T09:12:13.466Z,5.00
2023-03-05T09:14:41.260Z,5.10
2023-03-05T09:17:09.017Z,5.10
2023-03-05T09:19:36.343Z,5.00
2023-03-05T09:22:03.674Z,5.20
2023-03-05T09:24:30.665Z,5.30
2023-03-05T09:27:00.596Z,5.20
2023-03-05T09:29:28.026Z,5.20
2023-03-05T09:31:55.060Z,5.20
2023-03-05T09:34:22.777Z,5.30
2023-03-05T09:36:50.180Z,5.40
2023-03-05T09:39:17.568Z,5.40
2023-03-05T09:42:28.245Z,5.40
2023-03-05T09:45:17.993Z,5.60
2023-03-05T09:47:58.599Z,6.20
2023-03-05T09:50:39.382Z,6.40
2023-03-05T09:53:21.177Z,6.20
2023-03-05T09:55:58.801Z,6.10
2023-03-05T09:58:45.958Z,6.20
2023-03-05T10:01:19.366Z,6.30
2023-03-05T10:04:12.475Z,6.50
2023-03-05T10:07:08.893Z,6.30
2023-03-05T10:09:43.434Z,6.30
2023-03-05T10:12:25.367Z,6.40
2023-03-05T10:14:56.224Z,6.60
2023-03-05T10:18:07.610Z,6.80
2023-03-05T10:21:11.936Z,6.90
2023-03-05T10:24:12.978Z,6.60
2023-03-05T10:27:18.541Z,6.80
2023-03-05T10:30:07.002Z,6.60
2023-03-05T10:33:11.858Z,6.60
2023-03-05T10:36:07.478Z,6.70
2023-03-05T10:38:40.416Z,6.90
2023-03-05T10:41:36.316Z,7.30
2023-03-05T10:44:22.617Z,7.30
2023-03-05T10:46:50.872Z,7.40
2023-03-05T10:49:23.542Z,7.70
2023-03-05T10:52:09.740Z,7.80
2023-03-05T10:54:42.110Z,7.90
2023-03-05T10:57:23.453Z,8.10
2023-03-05T10:59:58.799Z,8.00
2023-03-05T11:02:26.181Z,7.90
2023-03-05T11:04:57.913Z,8.10
2023-03-05T11:07:25.423Z,8.00
2023-03-05T11:10:04.422Z,8.10
2023-03-05T11:12:39.244Z,8.20
2023-03-05T11:15:09.746Z,8.50
2023-03-05T11:17:43.793Z,8.30
2023-03-05T11:20:29.846Z,8.60
2023-03-05T11:23:03.341Z,8.40
2023-03-05T11:25:31.486Z,8.10
2023-03-05T11:28:02.293Z,8.40
2023-03-05T11:30:36.014Z,8.50
2023-03-05T11:33:22.980Z,8.20
2023-03-05T11:35:53.067Z,8.20
2023-03-05T11:38:26.739Z,8.10
2023-03-05T11:40:57.254Z,7.90
2023-03-05T11:43:26.090Z,7.40
2023-03-05T11:46:03.765Z,7.50
2023-03-05T11:48:37.273Z,7.50
2023-03-05T11:51:18.932Z,7.40
2023-03-05T11:53:52.106Z,7.30
2023-03-05T11:56:26.270Z,7.30
2023-03-05T11:59:06.925Z,7.10
2023-03-05T12:01:45.857Z,6.90
2023-03-05T12:04:14.216Z,6.70
2023-03-05T12:07:03.854Z,6.70
2023-03-05T12:09:43.241Z,6.70
2023-03-05T12:12:54.909Z,6.60
2023-03-05T12:15:46.109Z,6.60
2023-03-05T12:18:43.498Z,6.70
2023-03-05T12:21:30.237Z,6.70
2023-03-05T12:24:02.933Z,6.70
2023-03-05T12:26:59.907Z,6.50
2023-03-05T12:29:47.506Z,6.20
2023-03-05T12:32:28.767Z,6.30
2023-03-05T12:34:57.295Z,6.40
2023-03-05T12:37:24.654Z,6.30
2023-03-05T12:40:12.417Z,6.40
2023-03-05T12:42:43.891Z,6.20
2023-03-05T12:45:17.737Z,6.30
2023-03-05T12:48:12.537Z,6.30
2023-03-05T12:50:39.944Z,6.30
2023-03-05T12:53:07.190Z,6.20
2023-03-05T12:55:35.896Z,6.20
2023-03-05T12:58:33.441Z,6.20
2023-03-05T13:01:40.654Z,6.20
2023-03-05T13:04:32.506Z,6.30
2023-03-05T13:07:16.670Z,6.30
2023-03-05T13:09:54.085Z,6.10
2023-03-05T13:12:22.779Z,5.80
2023-03-05T13:15:03.001Z,5.90
2023-03-05T13:17:35.013Z,5.70
2023-03-05T13:20:22.759Z,5.60
2023-03-05T13:23:14.605Z,5.70
2023-03-05T13:25:45.003Z,5.70
2023-03-05T13:28:17.570Z,5.60
2023-03-05T13:30:53.400Z,5.70
2023-03-05T13:33:27.474Z,5.80
2023-03-05T13:35:56.055Z,5.80
2023-03-05T13:38:28.248Z,5.70
2023-03-05T13:41:14.857Z,5.70
2023-03-05T13:43:57.645Z,5.70
2023-03-05T13:46:29.829Z,5.70
2023-03-05T13:49:16.138Z,5.70
2023-03-05T13:51:53.304Z,5.70
2023-03-05T13:54:22.999Z,5.70
2023-03-05T13:57:00.804Z,5.60
2023-03-05T13:59:31.447Z,5.70
2023-03-05T14:02:01.838Z,5.70
2023-03-05T14:04:36.537Z,5.60
2023-03-05T14:07:33.455Z,5.70
2023-03-05T14:10:03.715Z,5.70
2023-03-05T14:12:35.669Z,5.60
2023-03-05T14:15:09.405Z,5.70
2023-03-05T14:17:42.413Z,5.60
2023-03-05T14:20:28.426Z,5.60
2023-03-05T14:23:01.761Z,5.60
2023-03-05T14:25:40.309Z,5.70
2023-03-05T14:28:29.778Z,5.60
2023-03-05T14:30:58.377Z,5.50
2023-03-05T14:33:35.565Z,5.50
2023-03-05T14:36:06.192Z,5.60
2023-03-05T14:38:35.189Z,5.60
2023-03-05T14:41:36.564Z,5.60
2023-03-05T14:44:13.188Z,5.60
2023-03-05T14:46:43.587Z,5.60
2023-03-05T14:49:11.651Z,5.50
2023-03-05T14:51:44.058Z,5.60
2023-03-05T14:54:24.115Z,5.60
2023-03-05T14:56:54.398Z,5.80
2023-03-05T14:59:22.680Z,5.80
2023-03-05T15:01:51.434Z,5.80
2023-03-05T15:04:20.234Z,5.80
2023-03-05T15:06:51.486Z,5.80
2023-03-05T15:09:21.620Z,5.70
2023-03-05T15:11:51.147Z,5.80
2023-03-05T15:14:19.260Z,5.70
2023-03-05T15:16:49.438Z,5.80
2023-03-05T15:19:17.659Z,5.70
2023-03-05T15:21:46.238Z,5.80
2023-03-05T15:24:15.335Z,5.70
2023-03-05T15:26:44.456Z,5.70
2023-03-05T15:29:12.881Z,5.80
2023-03-05T15:31:41.052Z,5.70
2023-03-05T15:34:09.273Z,5.80
2023-03-05T15:36:37.608Z,5.70
2023-03-05T15:39:05.265Z,5.70
2023-03-05T15:41:33.340Z,5.70
2023-03-05T15:44:01.112Z,5.70
2023-03-05T15:46:29.871Z,5.70
2023-03-05T15:48:58.551Z,5.70
2023-03-05T15:51:26.460Z,5.80
2023-03-05T15:53:54.723Z,5.70
2023-03-05T15:56:22.954Z,5.70
2023-03-05T15:58:51.451Z,5.70
2023-03-05T16:01:21.432Z,5.50
2023-03-05T16:03:50.928Z,5.60
2023-03-05T16:06:24.011Z,5.50
2023-03-05T16:08:56.570Z,5.60
2023-03-05T16:11:27.930Z,5.50
2023-03-05T16:13:57.161Z,5.60
2023-03-05T16:16:26.141Z,5.60
2023-03-05T16:18:55.197Z,5.60
2023-03-05T16:21:23.023Z,5.60
2023-03-05T16:23:52.119Z,5.50
2023-03-05T16:26:20.573Z,5.50
2023-03-05T16:28:49.189Z,5.50
2023-03-05T16:31:17.508Z,5.40
2023-03-05T16:33:46.511Z,5.50
2023-03-05T16:36:24.136Z,5.50
2023-03-05T16:38:54.559Z,5.40
2023-03-05T16:41:24.530Z,5.40
2023-03-05T16:43:54.455Z,5.50
2023-03-05T16:46:22.933Z,5.50
2023-03-05T16:48:50.581Z,5.40
2023-03-05T16:51:20.527Z,5.20
2023-03-05T16:53:50.200Z,5.20
2023-03-05T16:56:18.966Z,5.20
2023-03-05T16:58:47.599Z,5.20
2023-03-05T17:01:19.553Z,5.30
2023-03-05T17:03:49.050Z,5.30
2023-03-05T17:06:25.801Z,5.20
2023-03-05T17:08:55.460Z,5.30
2023-03-05T17:11:24.389Z,5.20
2023-03-05T17:13:53.137Z,5.20
2023-03-05T17:16:21.887Z,5.00
2023-03-05T17:18:49.985Z,5.00
2023-03-05T17:21:18.322Z,5.10
2023-03-05T17:23:46.584Z,5.00
2023-03-05T17:26:18.478Z,5.10
2023-03-05T17:28:47.131Z,5.10
2023-03-05T17:31:16.361Z,5.10
2023-03-05T17:33:45.654Z,5.10
2023-03-05T17:36:16.627Z,5.00
2023-03-05T17:38:46.943Z,4.90
2023-03-05T17:41:16.287Z,4.90
2023-03-05T17:43:45.600Z,4.90
2023-03-05T17:46:17.643Z,4.90
2023-03-05T17:48:53.746Z,4.90
2023-03-05T17:51:23.118Z,5.00
2023-03-05T17:53:51.074Z,4.90
2023-03-05T17:56:23.119Z,5.00
2023-03-05T17:58:53.245Z,5.00
2023-03-05T18:01:30.847Z,4.80
2023-03-05T18:04:00.253Z,4.90
2023-03-05T18:06:30.966Z,5.00
2023-03-05T18:08:59.392Z,4.70
2023-03-05T18:11:28.268Z,4.80
2023-03-05T18:13:57.422Z,4.90
2023-03-05T18:16:25.892Z,4.80
2023-03-05T18:18:59.721Z,4.90
2023-03-05T18:21:28.299Z,4.90
2023-03-05T18:23:56.171Z,4.90
2023-03-05T18:26:24.194Z,5.00
2023-03-05T18:28:52.374Z,5.00
2023-03-05T18:31:20.675Z,4.90
2023-03-05T18:33:48.912Z,4.90
2023-03-05T18:36:17.138Z,4.80
2023-03-05T18:38:46.683Z,4.70
2023-03-05T18:41:24.356Z,4.70
2023-03-05T18:44:00.144Z,4.70
2023-03-05T18:46:29.676Z,4.70
2023-03-05T18:49:01.598Z,4.70
2023-03-05T18:51:33.473Z,4.60
2023-03-05T18:54:07.656Z,4.60
2023-03-05T18:56:41.208Z,4.70
2023-03-05T18:59:40.745Z,4.60
2023-03-05T19:02:23.068Z,4.60
2023-03-05T19:04:54.514Z,4.60
2023-03-05T19:07:28.791Z,4.70
2023-03-05T19:10:11.167Z,4.70
2023-03-05T19:13:14.727Z,4.70
2023-03-05T19:15:50.713Z,4.70
2023-03-05T19:18:30.443Z,4.70
2023-03-05T19:21:02.241Z,4.80
2023-03-05T19:23:33.667Z,4.80
2023-03-05T19:26:10.052Z,4.70
2023-03-05T19:28:46.416Z,4.60
2023-03-05T19:31:17.014Z,4.50
2023-03-05T19:33:49.334Z,4.50
2023-03-05T19:36:21.287Z,4.50
2023-03-05T19:38:52.699Z,4.40
2023-03-05T19:41:26.439Z,4.50
2023-03-05T19:43:57.463Z,4.40
2023-03-05T19:46:29.546Z,4.50
2023-03-05T19:49:00.959Z,4.50
2023-03-05T19:51:36.796Z,4.50
2023-03-05T19:54:06.281Z,4.60
2023-03-05T19:56:39.244Z,4.40
2023-03-05T19:59:17.172Z,4.50
2023-03-05T20:01:49.468Z,4.40
2023-03-05T20:04:27.493Z,4.50
2023-03-05T20:07:11.081Z,4.40
2023-03-05T20:09:48.291Z,4.40
2023-03-05T20:12:17.405Z,4.40
2023-03-05T20:14:56.195Z,4.50
2023-03-05T20:17:29.938Z,4.50
2023-03-05T20:20:07.319Z,4.40
2023-03-05T20:22:40.353Z,4.50
2023-03-05T20:25:17.450Z,4.40
2023-03-05T20:27:53.973Z,4.50
2023-03-05T20:30:36.360Z,4.40
2023-03-05T20:33:11.258Z,4.30
2023-03-05T20:35:42.300Z,4.30
2023-03-05T20:38:26.635Z,4.50
2023-03-05T20:41:05.381Z,4.40
2023-03-05T20:43:41.481Z,4.30
2023-03-05T20:46:43.391Z,4.30
2023-03-05T20:49:18.051Z,4.30
2023-03-05T20:52:05.733Z,4.40
2023-03-05T20:54:35.495Z,4.40
2023-03-05T20:57:07.624Z,4.30
2023-03-05T20:59:40.356Z,4.40
2023-03-05T21:02:25.441Z,4.20
2023-03-05T21:04:56.267Z,4.20
2023-03-05T21:07:34.494Z,4.20
2023-03-05T21:10:07.954Z,4.10
2023-03-05T21:12:47.906Z,4.00
2023-03-05T21:15:21.995Z,4.20
2023-03-05T21:17:54.988Z,4.20
2023-03-05T21:20:30.706Z,4.20
2023-03-05T21:23:13.078Z,4.20
2023-03-05T21:25:42.148Z,4.20
2023-03-05T21:28:24.717Z,4.00
2023-03-05T21:30:58.564Z,4.00
2023-03-05T21:33:32.638Z,4.00
2023-03-05T21:36:08.755Z,4.10
2023-03-05T21:38:38.158Z,4.00
2023-03-05T21:41:11.139Z,4.00
2023-03-05T21:43:43.070Z,4.10
2023-03-05T21:46:14.668Z,4.10
2023-03-05T21:48:45.343Z,4.10
2023-03-05T21:51:17.629Z,4.10
2023-03-05T21:53:47.647Z,3.90
2023-03-05T21:56:19.860Z,3.90
2023-03-05T21:58:52.823Z,3.90
2023-03-05T22:01:23.185Z,4.00
2023-03-05T22:03:54.370Z,4.10
2023-03-05T22:06:23.524Z,4.20
2023-03-05T22:08:56.667Z,4.10
2023-03-05T22:11:25.058Z,4.10
2023-03-05T22:13:56.985Z,4.10
2023-03-05T22:16:27.949Z,4.10
2023-03-05T22:18:59.431Z,4.10
2023-03-05T22:21:31.647Z,4.00
2023-03-05T22:24:00.132Z,4.00
2023-03-05T22:26:47.087Z,3.90
2023-03-05T22:29:20.174Z,3.80
2023-03-05T22:31:51.372Z,3.90
2023-03-05T22:34:22.539Z,3.90
2023-03-05T22:36:53.382Z,3.90
2023-03-05T22:39:25.537Z,3.90
2023-03-05T22:41:55.551Z,3.80
2023-03-05T22:44:25.114Z,3.80
2023-03-05T22:46:55.421Z,3.90
2023-03-05T22:49:25.466Z,3.90
2023-03-05T22:51:56.323Z,3.80
2023-03-05T22:54:27.195Z,3.90
2023-03-05T22:56:58.772Z,3.80
2023-03-05T22:59:25.730Z,3.80
2023-03-05T23:01:55.285Z,3.90
2023-03-05T23:04:52.144Z,3.90
2023-03-05T23:07:41.229Z,3.80
2023-03-05T23:10:33.676Z,3.70
2023-03-05T23:13:04.577Z,3.80
2023-03-05T23:15:35.941Z,4.00
2023-03-05T23:18:09.558Z,4.10
2023-03-05T23:20:40.904Z,4.10
2023-03-05T23:23:11.510Z,4.20
2023-03-05T23:25:42.156Z,4.10
2023-03-05T23:28:09.162Z,4.10
2023-03-05T23:30:46.845Z,4.20
2023-03-05T23:33:37.689Z,4.20
2023-03-05T23:36:04.944Z,4.20
2023-03-05T23:38:33.472Z,4.30
2023-03-05T23:41:07.874Z,4.30
2023-03-05T23:43:38.608Z,4.40
2023-03-05T23:46:13.663Z,4.40
2023-03-05T23:48:45.120Z,4.40
2023-03-05T23:51:15.523Z,4.40
2023-03-05T23:53:47.648Z,4.40
2023-03-05T23:56:18.970Z,4.40
2023-03-05T23:58:48.001Z,4.40
